sensor_id;sensor_type;location;lat;lon;timestamp;P1;durP1;ratioP1;P2;durP2;ratioP2
76903;SDS011;65865;51.698;-0.292;2023-04-25T00:01:19;3.15;;;0.90;;
76903;SDS011;65865;51.698;-0.292;2023-04-25T00:03:46;3.70;;;0.60;;
76903;SDS011;65865;51.698;-0.292;2023-04-25T00:06:12;2.53;;;0.65;;
76903;SDS011;65865;51.698;-0.292;2023-04-25T00:08:38;4.18;;;1.15;;
76903;SDS011;65865;51.698;-0.292;2023-04-25T00:11:04;2.30;;;0.47;;
76903;SDS011;65865;51.698;-0.292;2023-04-25T00:13:30;3.85;;;0.90;;
76903;SDS011;65865;51.698;-0.292;2023-04-25T00:15:56;3.78;;;0.70;;
76903;SDS011;65865;51.698;-0.292;2023-04-25T00:18:23;4.40;;;1.25;;
76903;SDS011;65865;51.698;-0.292;2023-04-25T00:20:49;2.72;;;0.80;;
76903;SDS011;65865;51.698;-0.292;2023-04-25T00:23:15;4.05;;;0.70;;
76903;SDS011;65865;51.698;-0.292;2023-04-25T00:25:46;3.95;;;0.80;;
76903;SDS011;65865;51.698;-0.292;2023-04-25T00:28:12;2.05;;;0.60;;
76903;SDS011;65865;51.698;-0.292;2023-04-25T00:30:39;4.22;;;0.70;;
76903;SDS011;65865;51.698;-0.292;2023-04-25T00:33:05;4.82;;;0.80;;
76903;SDS011;65865;51.698;-0.292;2023-04-25T00:35:32;3.35;;;1.30;;
76903;SDS011;65865;51.698;-0.292;2023-04-25T00:37:58;3.63;;;1.00;;
76903;SDS011;65865;51.698;-0.292;2023-04-25T00:40:24;2.67;;;0.65;;
76903;SDS011;65865;51.698;-0.292;2023-04-25T00:42:51;2.75;;;0.70;;
76903;SDS011;65865;51.698;-0.292;2023-04-25T00:45:17;3.10;;;0.90;;
76903;SDS011;65865;51.698;-0.292;2023-04-25T00:47:43;4.32;;;0.73;;
76903;SDS011;65865;51.698;-0.292;2023-04-25T00:50:11;2.60;;;0.52;;
76903;SDS011;65865;51.698;-0.292;2023-04-25T00:52:37;3.25;;;0.95;;
76903;SDS011;65865;51.698;-0.292;2023-04-25T00:55:03;2.60;;;0.63;;
76903;SDS011;65865;51.698;-0.292;2023-04-25T00:57:30;3.60;;;1.00;;
76903;SDS011;65865;51.698;-0.292;2023-04-25T00:59:56;3.58;;;0.70;;
76903;SDS011;65865;51.698;-0.292;2023-04-25T01:02:22;5.38;;;0.70;;
76903;SDS011;65865;51.698;-0.292;2023-04-25T01:04:48;1.98;;;0.50;;
76903;SDS011;65865;51.698;-0.292;2023-04-25T01:07:14;3.67;;;0.90;;
76903;SDS011;65865;51.698;-0.292;2023-04-25T01:09:41;3.13;;;0.60;;
76903;SDS011;65865;51.698;-0.292;2023-04-25T01:12:07;3.42;;;0.82;;
76903;SDS011;65865;51.698;-0.292;2023-04-25T01:14:34;2.47;;;0.60;;
76903;SDS011;65865;51.698;-0.292;2023-04-25T01:17:00;2.33;;;0.73;;
76903;SDS011;65865;51.698;-0.292;2023-04-25T01:19:26;2.42;;;0.60;;
76903;SDS011;65865;51.698;-0.292;2023-04-25T01:21:52;2.33;;;0.63;;
76903;SDS011;65865;51.698;-0.292;2023-04-25T01:24:18;3.80;;;0.60;;
76903;SDS011;65865;51.698;-0.292;2023-04-25T01:26:44;2.28;;;0.60;;
76903;SDS011;65865;51.698;-0.292;2023-04-25T01:29:14;3.35;;;0.60;;
76903;SDS011;65865;51.698;-0.292;2023-04-25T01:31:40;3.22;;;0.70;;
76903;SDS011;65865;51.698;-0.292;2023-04-25T01:34:07;3.83;;;0.70;;
76903;SDS011;65865;51.698;-0.292;2023-04-25T01:36:33;2.15;;;0.43;;
76903;SDS011;65865;51.698;-0.292;2023-04-25T01:39:00;2.97;;;0.68;;
76903;SDS011;65865;51.698;-0.292;2023-04-25T01:41:26;2.80;;;0.60;;
76903;SDS011;65865;51.698;-0.292;2023-04-25T01:43:52;2.50;;;0.73;;
76903;SDS011;65865;51.698;-0.292;2023-04-25T01:46:18;2.22;;;0.60;;
76903;SDS011;65865;51.698;-0.292;2023-04-25T01:48:45;2.60;;;0.60;;
76903;SDS011;65865;51.698;-0.292;2023-04-25T01:51:11;3.22;;;0.80;;
76903;SDS011;65865;51.698;-0.292;2023-04-25T01:53:37;2.58;;;0.70;;
76903;SDS011;65865;51.698;-0.292;2023-04-25T01:56:04;2.97;;;0.55;;
76903;SDS011;65865;51.698;-0.292;2023-04-25T01:58:30;2.65;;;0.60;;
76903;SDS011;65865;51.698;-0.292;2023-04-25T02:00:56;2.58;;;0.80;;
76903;SDS011;65865;51.698;-0.292;2023-04-25T02:03:22;2.08;;;0.50;;
76903;SDS011;65865;51.698;-0.292;2023-04-25T02:05:48;2.47;;;0.52;;
76903;SDS011;65865;51.698;-0.292;2023-04-25T02:08:16;2.88;;;0.50;;
76903;SDS011;65865;51.698;-0.292;2023-04-25T02:10:42;1.42;;;0.65;;
76903;SDS011;65865;51.698;-0.292;2023-04-25T02:13:08;3.13;;;0.75;;
76903;SDS011;65865;51.698;-0.292;2023-04-25T02:15:34;2.20;;;0.60;;
76903;SDS011;65865;51.698;-0.292;2023-04-25T02:18:00;1.55;;;0.68;;
76903;SDS011;65865;51.698;-0.292;2023-04-25T02:20:27;2.58;;;0.50;;
76903;SDS011;65865;51.698;-0.292;2023-04-25T02:22:53;3.03;;;0.63;;
76903;SDS011;65865;51.698;-0.292;2023-04-25T02:25:19;2.92;;;0.60;;
76903;SDS011;65865;51.698;-0.292;2023-04-25T02:27:46;3.00;;;0.55;;
76903;SDS011;65865;51.698;-0.292;2023-04-25T02:30:12;3.17;;;1.05;;
76903;SDS011;65865;51.698;-0.292;2023-04-25T02:32:38;2.70;;;0.73;;
76903;SDS011;65865;51.698;-0.292;2023-04-25T02:35:05;2.40;;;0.50;;
76903;SDS011;65865;51.698;-0.292;2023-04-25T02:37:31;1.90;;;0.57;;
76903;SDS011;65865;51.698;-0.292;2023-04-25T02:39:57;2.90;;;0.75;;
76903;SDS011;65865;51.698;-0.292;2023-04-25T02:42:24;1.92;;;0.60;;
76903;SDS011;65865;51.698;-0.292;2023-04-25T02:44:50;2.97;;;0.40;;
76903;SDS011;65865;51.698;-0.292;2023-04-25T02:47:15;1.92;;;0.45;;
76903;SDS011;65865;51.698;-0.292;2023-04-25T02:49:42;2.13;;;0.50;;
76903;SDS011;65865;51.698;-0.292;2023-04-25T02:52:07;1.63;;;0.40;;
76903;SDS011;65865;51.698;-0.292;2023-04-25T02:54:34;2.10;;;0.50;;
76903;SDS011;65865;51.698;-0.292;2023-04-25T02:56:59;2.25;;;0.60;;
76903;SDS011;65865;51.698;-0.292;2023-04-25T02:59:28;2.22;;;0.40;;
76903;SDS011;65865;51.698;-0.292;2023-04-25T03:01:54;0.88;;;0.30;;
76903;SDS011;65865;51.698;-0.292;2023-04-25T03:04:20;2.05;;;0.45;;
76903;SDS011;65865;51.698;-0.292;2023-04-25T03:06:48;2.30;;;0.50;;
76903;SDS011;65865;51.698;-0.292;2023-04-25T03:09:14;2.63;;;0.70;;
76903;SDS011;65865;51.698;-0.292;2023-04-25T03:11:40;1.55;;;0.38;;
76903;SDS011;65865;51.698;-0.292;2023-04-25T03:14:06;2.65;;;0.50;;
76903;SDS011;65865;51.698;-0.292;2023-04-25T03:16:32;3.17;;;0.80;;
76903;SDS011;65865;51.698;-0.292;2023-04-25T03:18:58;2.15;;;0.60;;
76903;SDS011;65865;51.698;-0.292;2023-04-25T03:21:25;3.10;;;0.70;;
76903;SDS011;65865;51.698;-0.292;2023-04-25T03:23:51;2.22;;;0.40;;
76903;SDS011;65865;51.698;-0.292;2023-04-25T03:26:17;1.42;;;0.50;;
76903;SDS011;65865;51.698;-0.292;2023-04-25T03:28:43;4.30;;;0.65;;
76903;SDS011;65865;51.698;-0.292;2023-04-25T03:31:09;2.55;;;0.50;;
76903;SDS011;65865;51.698;-0.292;2023-04-25T03:33:35;1.77;;;0.40;;
76903;SDS011;65865;51.698;-0.292;2023-04-25T03:36:01;3.30;;;0.63;;
76903;SDS011;65865;51.698;-0.292;2023-04-25T03:38:27;2.58;;;0.60;;
76903;SDS011;65865;51.698;-0.292;2023-04-25T03:40:53;1.65;;;0.52;;
76903;SDS011;65865;51.698;-0.292;2023-04-25T03:43:21;2.33;;;0.75;;
76903;SDS011;65865;51.698;-0.292;2023-04-25T03:45:47;2.80;;;0.50;;
76903;SDS011;65865;51.698;-0.292;2023-04-25T03:48:13;2.72;;;0.50;;
76903;SDS011;65865;51.698;-0.292;2023-04-25T03:50:39;3.35;;;0.80;;
76903;SDS011;65865;51.698;-0.292;2023-04-25T03:53:05;2.45;;;0.77;;
76903;SDS011;65865;51.698;-0.292;2023-04-25T03:55:31;1.77;;;0.47;;
76903;SDS011;65865;51.698;-0.292;2023-04-25T03:57:57;1.25;;;0.43;;
76903;SDS011;65865;51.698;-0.292;2023-04-25T04:00:23;1.98;;;0.43;;
76903;SDS011;65865;51.698;-0.292;2023-04-25T04:02:50;1.20;;;0.40;;
76903;SDS011;65865;51.698;-0.292;2023-04-25T04:05:16;2.35;;;0.50;;
76903;SDS011;65865;51.698;-0.292;2023-04-25T04:07:42;2.10;;;0.75;;
76903;SDS011;65865;51.698;-0.292;2023-04-25T04:10:08;2.78;;;0.60;;
76903;SDS011;65865;51.698;-0.292;2023-04-25T04:12:34;1.70;;;0.40;;
76903;SDS011;65865;51.698;-0.292;2023-04-25T04:15:01;0.95;;;0.38;;
76903;SDS011;65865;51.698;-0.292;2023-04-25T04:17:28;1.35;;;0.60;;
76903;SDS011;65865;51.698;-0.292;2023-04-25T04:19:54;3.28;;;0.55;;
76903;SDS011;65865;51.698;-0.292;2023-04-25T04:22:21;2.72;;;0.60;;
76903;SDS011;65865;51.698;-0.292;2023-04-25T04:24:47;2.97;;;0.50;;
76903;SDS011;65865;51.698;-0.292;2023-04-25T04:27:14;2.08;;;0.50;;
76903;SDS011;65865;51.698;-0.292;2023-04-25T04:29:42;1.38;;;0.52;;
76903;SDS011;65865;51.698;-0.292;2023-04-25T04:32:08;3.38;;;0.40;;
76903;SDS011;65865;51.698;-0.292;2023-04-25T04:34:34;2.83;;;0.60;;
76903;SDS011;65865;51.698;-0.292;2023-04-25T04:37:00;2.65;;;0.60;;
76903;SDS011;65865;51.698;-0.292;2023-04-25T04:39:27;2.67;;;0.70;;
76903;SDS011;65865;51.698;-0.292;2023-04-25T04:41:53;2.50;;;0.50;;
76903;SDS011;65865;51.698;-0.292;2023-04-25T04:44:19;1.52;;;0.50;;
76903;SDS011;65865;51.698;-0.292;2023-04-25T04:46:45;2.63;;;0.57;;
76903;SDS011;65865;51.698;-0.292;2023-04-25T04:49:12;1.65;;;0.52;;
76903;SDS011;65865;51.698;-0.292;2023-04-25T04:51:41;3.35;;;0.60;;
76903;SDS011;65865;51.698;-0.292;2023-04-25T04:54:09;2.65;;;0.70;;
76903;SDS011;65865;51.698;-0.292;2023-04-25T04:56:35;1.67;;;0.45;;
76903;SDS011;65865;51.698;-0.292;2023-04-25T04:59:01;2.55;;;0.60;;
76903;SDS011;65865;51.698;-0.292;2023-04-25T05:01:27;2.30;;;0.50;;
76903;SDS011;65865;51.698;-0.292;2023-04-25T05:03:55;2.72;;;0.50;;
76903;SDS011;65865;51.698;-0.292;2023-04-25T05:06:25;1.95;;;0.60;;
76903;SDS011;65865;51.698;-0.292;2023-04-25T05:08:51;2.83;;;0.50;;
76903;SDS011;65865;51.698;-0.292;2023-04-25T05:11:18;1.55;;;0.47;;
76903;SDS011;65865;51.698;-0.292;2023-04-25T05:13:44;2.67;;;0.50;;
76903;SDS011;65865;51.698;-0.292;2023-04-25T05:16:10;2.03;;;0.52;;
76903;SDS011;65865;51.698;-0.292;2023-04-25T05:18:36;3.92;;;0.65;;
76903;SDS011;65865;51.698;-0.292;2023-04-25T05:21:02;1.75;;;0.50;;
76903;SDS011;65865;51.698;-0.292;2023-04-25T05:23:28;2.08;;;0.52;;
76903;SDS011;65865;51.698;-0.292;2023-04-25T05:25:55;1.70;;;0.47;;
76903;SDS011;65865;51.698;-0.292;2023-04-25T05:28:21;1.02;;;0.40;;
76903;SDS011;65865;51.698;-0.292;2023-04-25T05:30:48;1.95;;;0.60;;
76903;SDS011;65865;51.698;-0.292;2023-04-25T05:33:14;3.17;;;0.47;;
76903;SDS011;65865;51.698;-0.292;2023-04-25T05:35:40;2.60;;;0.50;;
76903;SDS011;65865;51.698;-0.292;2023-04-25T05:38:06;1.77;;;0.45;;
76903;SDS011;65865;51.698;-0.292;2023-04-25T05:40:32;1.70;;;0.40;;
76903;SDS011;65865;51.698;-0.292;2023-04-25T05:42:58;1.98;;;0.50;;
76903;SDS011;65865;51.698;-0.292;2023-04-25T05:45:24;2.55;;;0.80;;
76903;SDS011;65865;51.698;-0.292;2023-04-25T05:47:50;1.90;;;0.50;;
76903;SDS011;65865;51.698;-0.292;2023-04-25T05:50:16;2.55;;;0.60;;
76903;SDS011;65865;51.698;-0.292;2023-04-25T05:52:42;2.45;;;0.50;;
76903;SDS011;65865;51.698;-0.292;2023-04-25T05:55:08;3.15;;;0.50;;
76903;SDS011;65865;51.698;-0.292;2023-04-25T05:57:34;2.55;;;0.52;;
76903;SDS011;65865;51.698;-0.292;2023-04-25T06:00:00;1.77;;;0.60;;
76903;SDS011;65865;51.698;-0.292;2023-04-25T06:02:26;2.95;;;0.47;;
76903;SDS011;65865;51.698;-0.292;2023-04-25T06:04:52;2.40;;;0.88;;
76903;SDS011;65865;51.698;-0.292;2023-04-25T06:07:18;6.93;;;0.70;;
76903;SDS011;65865;51.698;-0.292;2023-04-25T06:09:45;2.15;;;0.52;;
76903;SDS011;65865;51.698;-0.292;2023-04-25T06:12:11;2.20;;;0.55;;
76903;SDS011;65865;51.698;-0.292;2023-04-25T06:14:37;3.95;;;0.60;;
76903;SDS011;65865;51.698;-0.292;2023-04-25T06:17:05;2.50;;;0.70;;
76903;SDS011;65865;51.698;-0.292;2023-04-25T06:19:33;3.47;;;0.50;;
76903;SDS011;65865;51.698;-0.292;2023-04-25T06:21:59;2.47;;;0.50;;
76903;SDS011;65865;51.698;-0.292;2023-04-25T06:24:25;2.10;;;0.50;;
76903;SDS011;65865;51.698;-0.292;2023-04-25T06:26:51;2.80;;;0.60;;
76903;SDS011;65865;51.698;-0.292;2023-04-25T06:29:17;1.80;;;0.60;;
76903;SDS011;65865;51.698;-0.292;2023-04-25T06:31:43;2.47;;;0.68;;
76903;SDS011;65865;51.698;-0.292;2023-04-25T06:34:09;3.55;;;0.35;;
76903;SDS011;65865;51.698;-0.292;2023-04-25T06:36:35;2.30;;;0.70;;
76903;SDS011;65865;51.698;-0.292;2023-04-25T06:39:01;1.73;;;0.45;;
76903;SDS011;65865;51.698;-0.292;2023-04-25T06:41:28;3.85;;;0.55;;
76903;SDS011;65865;51.698;-0.292;2023-04-25T06:43:54;3.30;;;0.70;;
76903;SDS011;65865;51.698;-0.292;2023-04-25T06:46:20;3.65;;;0.65;;
76903;SDS011;65865;51.698;-0.292;2023-04-25T06:48:46;4.57;;;0.60;;
76903;SDS011;65865;51.698;-0.292;2023-04-25T06:51:12;3.53;;;0.60;;
76903;SDS011;65865;51.698;-0.292;2023-04-25T06:53:38;3.40;;;0.80;;
76903;SDS011;65865;51.698;-0.292;2023-04-25T06:56:04;3.13;;;0.85;;
76903;SDS011;65865;51.698;-0.292;2023-04-25T06:58:30;1.73;;;0.50;;
76903;SDS011;65865;51.698;-0.292;2023-04-25T07:00:57;3.03;;;0.50;;
76903;SDS011;65865;51.698;-0.292;2023-04-25T07:03:23;3.92;;;0.65;;
76903;SDS011;65865;51.698;-0.292;2023-04-25T07:05:49;3.72;;;0.57;;
76903;SDS011;65865;51.698;-0.292;2023-04-25T07:08:15;1.88;;;0.40;;
76903;SDS011;65865;51.698;-0.292;2023-04-25T07:10:42;2.60;;;0.77;;
76903;SDS011;65865;51.698;-0.292;2023-04-25T07:13:08;4.43;;;0.52;;
76903;SDS011;65865;51.698;-0.292;2023-04-25T07:15:34;4.60;;;0.70;;
76903;SDS011;65865;51.698;-0.292;2023-04-25T07:18:00;4.03;;;0.77;;
76903;SDS011;65865;51.698;-0.292;2023-04-25T07:20:26;2.53;;;0.82;;
76903;SDS011;65865;51.698;-0.292;2023-04-25T07:22:52;3.03;;;1.00;;
76903;SDS011;65865;51.698;-0.292;2023-04-25T07:25:19;4.40;;;0.70;;
76903;SDS011;65865;51.698;-0.292;2023-04-25T07:27:45;3.15;;;0.50;;
76903;SDS011;65865;51.698;-0.292;2023-04-25T07:30:11;5.50;;;1.13;;
76903;SDS011;65865;51.698;-0.292;2023-04-25T07:32:38;5.28;;;1.02;;
76903;SDS011;65865;51.698;-0.292;2023-04-25T07:35:04;3.13;;;0.82;;
76903;SDS011;65865;51.698;-0.292;2023-04-25T07:37:31;4.88;;;0.63;;
76903;SDS011;65865;51.698;-0.292;2023-04-25T07:39:57;4.32;;;0.65;;
76903;SDS011;65865;51.698;-0.292;2023-04-25T07:42:23;2.53;;;0.60;;
76903;SDS011;65865;51.698;-0.292;2023-04-25T07:44:49;4.03;;;0.85;;
76903;SDS011;65865;51.698;-0.292;2023-04-25T07:47:16;4.40;;;0.80;;
76903;SDS011;65865;51.698;-0.292;2023-04-25T07:49:44;5.20;;;0.80;;
76903;SDS011;65865;51.698;-0.292;2023-04-25T07:52:10;4.72;;;1.42;;
76903;SDS011;65865;51.698;-0.292;2023-04-25T07:54:36;4.55;;;0.88;;
76903;SDS011;65865;51.698;-0.292;2023-04-25T07:57:02;3.78;;;0.73;;
76903;SDS011;65865;51.698;-0.292;2023-04-25T07:59:28;7.18;;;1.10;;
76903;SDS011;65865;51.698;-0.292;2023-04-25T08:01:54;4.35;;;0.63;;
76903;SDS011;65865;51.698;-0.292;2023-04-25T08:04:22;4.93;;;0.70;;
76903;SDS011;65865;51.698;-0.292;2023-04-25T08:06:48;3.83;;;0.60;;
76903;SDS011;65865;51.698;-0.292;2023-04-25T08:09:15;4.20;;;0.75;;
76903;SDS011;65865;51.698;-0.292;2023-04-25T08:11:41;3.80;;;0.80;;
76903;SDS011;65865;51.698;-0.292;2023-04-25T08:14:07;4.60;;;0.80;;
76903;SDS011;65865;51.698;-0.292;2023-04-25T08:16:33;4.25;;;1.05;;
76903;SDS011;65865;51.698;-0.292;2023-04-25T08:19:00;3.88;;;1.00;;
76903;SDS011;65865;51.698;-0.292;2023-04-25T08:21:26;6.05;;;0.93;;
76903;SDS011;65865;51.698;-0.292;2023-04-25T08:23:52;4.25;;;0.80;;
76903;SDS011;65865;51.698;-0.292;2023-04-25T08:26:18;5.28;;;1.17;;
76903;SDS011;65865;51.698;-0.292;2023-04-25T08:28:44;3.30;;;0.82;;
76903;SDS011;65865;51.698;-0.292;2023-04-25T08:31:11;3.88;;;0.60;;
76903;SDS011;65865;51.698;-0.292;2023-04-25T08:33:37;3.05;;;0.57;;
76903;SDS011;65865;51.698;-0.292;2023-04-25T08:36:03;3.33;;;0.95;;
76903;SDS011;65865;51.698;-0.292;2023-04-25T08:38:29;11.05;;;1.40;;
76903;SDS011;65865;51.698;-0.292;2023-04-25T08:40:56;5.50;;;1.00;;
76903;SDS011;65865;51.698;-0.292;2023-04-25T08:43:22;2.60;;;0.40;;
76903;SDS011;65865;51.698;-0.292;2023-04-25T08:45:49;4.80;;;0.80;;
76903;SDS011;65865;51.698;-0.292;2023-04-25T08:48:16;3.50;;;0.52;;
76903;SDS011;65865;51.698;-0.292;2023-04-25T08:50:50;5.57;;;0.60;;
76903;SDS011;65865;51.698;-0.292;2023-04-25T08:53:16;3.17;;;0.68;;
76903;SDS011;65865;51.698;-0.292;2023-04-25T08:55:45;3.17;;;0.60;;
76903;SDS011;65865;51.698;-0.292;2023-04-25T08:58:12;4.30;;;0.88;;
76903;SDS011;65865;51.698;-0.292;2023-04-25T09:00:38;4.28;;;0.80;;
76903;SDS011;65865;51.698;-0.292;2023-04-25T09:03:04;4.95;;;0.60;;
76903;SDS011;65865;51.698;-0.292;2023-04-25T09:05:34;3.03;;;0.70;;
76903;SDS011;65865;51.698;-0.292;2023-04-25T09:08:00;4.95;;;0.80;;
76903;SDS011;65865;51.698;-0.292;2023-04-25T09:10:27;4.25;;;0.50;;
76903;SDS011;65865;51.698;-0.292;2023-04-25T09:18:34;2.25;;;0.50;;
76903;SDS011;65865;51.698;-0.292;2023-04-25T09:23:38;3.50;;;0.60;;
76903;SDS011;65865;51.698;-0.292;2023-04-25T09:26:05;5.88;;;0.60;;
76903;SDS011;65865;51.698;-0.292;2023-04-25T09:28:32;5.85;;;0.63;;
76903;SDS011;65865;51.698;-0.292;2023-04-25T09:31:00;3.83;;;0.50;;
76903;SDS011;65865;51.698;-0.292;2023-04-25T09:33:32;3.55;;;0.60;;
76903;SDS011;65865;51.698;-0.292;2023-04-25T09:36:05;3.55;;;0.75;;
76903;SDS011;65865;51.698;-0.292;2023-04-25T09:38:32;5.05;;;0.68;;
76903;SDS011;65865;51.698;-0.292;2023-04-25T09:41:06;3.65;;;0.63;;
76903;SDS011;65865;51.698;-0.292;2023-04-25T09:43:32;7.35;;;1.13;;
76903;SDS011;65865;51.698;-0.292;2023-04-25T09:45:57;4.55;;;0.70;;
76903;SDS011;65865;51.698;-0.292;2023-04-25T09:48:25;4.63;;;0.50;;
76903;SDS011;65865;51.698;-0.292;2023-04-25T09:53:30;3.08;;;0.70;;
76903;SDS011;65865;51.698;-0.292;2023-04-25T09:55:57;4.32;;;0.60;;
76903;SDS011;65865;51.698;-0.292;2023-04-25T09:58:25;3.58;;;0.98;;
76903;SDS011;65865;51.698;-0.292;2023-04-25T10:00:54;3.58;;;1.00;;
76903;SDS011;65865;51.698;-0.292;2023-04-25T10:03:25;5.47;;;1.75;;
76903;SDS011;65865;51.698;-0.292;2023-04-25T10:05:51;5.35;;;1.00;;
76903;SDS011;65865;51.698;-0.292;2023-04-25T10:08:18;5.00;;;1.10;;
76903;SDS011;65865;51.698;-0.292;2023-04-25T10:10:46;5.18;;;0.90;;
76903;SDS011;65865;51.698;-0.292;2023-04-25T10:13:12;4.15;;;0.95;;
76903;SDS011;65865;51.698;-0.292;2023-04-25T10:15:39;6.45;;;1.13;;
76903;SDS011;65865;51.698;-0.292;2023-04-25T10:18:06;3.63;;;1.02;;
76903;SDS011;65865;51.698;-0.292;2023-04-25T10:20:32;6.85;;;1.60;;
76903;SDS011;65865;51.698;-0.292;2023-04-25T10:23:03;5.03;;;1.10;;
76903;SDS011;65865;51.698;-0.292;2023-04-25T10:25:29;5.28;;;1.10;;
76903;SDS011;65865;51.698;-0.292;2023-04-25T10:27:56;5.18;;;1.10;;
76903;SDS011;65865;51.698;-0.292;2023-04-25T10:30:22;4.30;;;1.00;;
76903;SDS011;65865;51.698;-0.292;2023-04-25T10:32:48;3.00;;;1.05;;
76903;SDS011;65865;51.698;-0.292;2023-04-25T10:35:16;4.72;;;0.93;;
76903;SDS011;65865;51.698;-0.292;2023-04-25T10:38:15;3.40;;;0.80;;
76903;SDS011;65865;51.698;-0.292;2023-04-25T10:40:34;4.80;;;0.88;;
76903;SDS011;65865;51.698;-0.292;2023-04-25T10:45:51;4.75;;;0.75;;
76903;SDS011;65865;51.698;-0.292;2023-04-25T10:48:27;4.63;;;0.75;;
76903;SDS011;65865;51.698;-0.292;2023-04-25T10:51:12;2.47;;;0.68;;
76903;SDS011;65865;51.698;-0.292;2023-04-25T10:53:41;4.00;;;0.80;;
76903;SDS011;65865;51.698;-0.292;2023-04-25T10:56:18;4.22;;;0.60;;
76903;SDS011;65865;51.698;-0.292;2023-04-25T10:58:46;2.92;;;0.82;;
76903;SDS011;65865;51.698;-0.292;2023-04-25T11:01:13;3.03;;;0.80;;
76903;SDS011;65865;51.698;-0.292;2023-04-25T11:03:42;5.55;;;0.90;;
76903;SDS011;65865;51.698;-0.292;2023-04-25T11:08:53;4.60;;;0.80;;
76903;SDS011;65865;51.698;-0.292;2023-04-25T11:11:19;4.75;;;0.80;;
76903;SDS011;65865;51.698;-0.292;2023-04-25T11:13:48;4.18;;;0.57;;
76903;SDS011;65865;51.698;-0.292;2023-04-25T11:16:15;3.13;;;0.70;;
76903;SDS011;65865;51.698;-0.292;2023-04-25T11:18:42;3.58;;;0.80;;
76903;SDS011;65865;51.698;-0.292;2023-04-25T11:21:08;3.88;;;0.80;;
76903;SDS011;65865;51.698;-0.292;2023-04-25T11:23:34;2.22;;;0.60;;
76903;SDS011;65865;51.698;-0.292;2023-04-25T11:26:00;4.05;;;0.57;;
76903;SDS011;65865;51.698;-0.292;2023-04-25T11:28:26;4.28;;;0.70;;
76903;SDS011;65865;51.698;-0.292;2023-04-25T11:30:52;5.57;;;0.57;;
76903;SDS011;65865;51.698;-0.292;2023-04-25T11:33:22;3.90;;;0.75;;
76903;SDS011;65865;51.698;-0.292;2023-04-25T11:35:49;3.30;;;0.50;;
76903;SDS011;65865;51.698;-0.292;2023-04-25T11:38:15;3.03;;;0.50;;
76903;SDS011;65865;51.698;-0.292;2023-04-25T11:40:41;3.72;;;0.60;;
76903;SDS011;65865;51.698;-0.292;2023-04-25T11:43:07;2.15;;;0.50;;
76903;SDS011;65865;51.698;-0.292;2023-04-25T11:45:36;3.65;;;0.75;;
76903;SDS011;65865;51.698;-0.292;2023-04-25T11:48:02;2.17;;;0.52;;
76903;SDS011;65865;51.698;-0.292;2023-04-25T11:50:28;2.90;;;0.50;;
76903;SDS011;65865;51.698;-0.292;2023-04-25T11:52:55;2.10;;;0.50;;
76903;SDS011;65865;51.698;-0.292;2023-04-25T11:55:22;2.83;;;0.50;;
76903;SDS011;65865;51.698;-0.292;2023-04-25T11:57:48;2.83;;;0.30;;
76903;SDS011;65865;51.698;-0.292;2023-04-25T12:00:19;2.22;;;0.30;;
76903;SDS011;65865;51.698;-0.292;2023-04-25T12:02:46;2.85;;;0.50;;
76903;SDS011;65865;51.698;-0.292;2023-04-25T12:05:13;2.30;;;0.40;;
76903;SDS011;65865;51.698;-0.292;2023-04-25T12:07:40;3.00;;;0.45;;
76903;SDS011;65865;51.698;-0.292;2023-04-25T12:10:10;1.73;;;0.40;;
76903;SDS011;65865;51.698;-0.292;2023-04-25T12:12:37;1.77;;;0.40;;
76903;SDS011;65865;51.698;-0.292;2023-04-25T12:15:10;2.63;;;0.60;;
76903;SDS011;65865;51.698;-0.292;2023-04-25T12:17:36;0.70;;;0.30;;
76903;SDS011;65865;51.698;-0.292;2023-04-25T12:20:07;2.78;;;0.63;;
76903;SDS011;65865;51.698;-0.292;2023-04-25T12:22:34;3.38;;;0.60;;
76903;SDS011;65865;51.698;-0.292;2023-04-25T12:25:01;1.98;;;0.50;;
76903;SDS011;65865;51.698;-0.292;2023-04-25T12:27:30;1.77;;;0.40;;
76903;SDS011;65865;51.698;-0.292;2023-04-25T12:29:56;2.08;;;0.40;;
76903;SDS011;65865;51.698;-0.292;2023-04-25T12:32:22;1.25;;;0.20;;
76903;SDS011;65865;51.698;-0.292;2023-04-25T12:34:48;1.40;;;0.40;;
76903;SDS011;65865;51.698;-0.292;2023-04-25T12:37:15;2.05;;;0.30;;
76903;SDS011;65865;51.698;-0.292;2023-04-25T12:39:41;1.42;;;0.22;;
76903;SDS011;65865;51.698;-0.292;2023-04-25T12:42:07;1.92;;;0.40;;
76903;SDS011;65865;51.698;-0.292;2023-04-25T12:44:36;2.85;;;0.40;;
76903;SDS011;65865;51.698;-0.292;2023-04-25T12:47:02;1.80;;;0.55;;
76903;SDS011;65865;51.698;-0.292;2023-04-25T12:49:28;1.08;;;0.38;;
76903;SDS011;65865;51.698;-0.292;2023-04-25T12:51:54;1.77;;;0.47;;
76903;SDS011;65865;51.698;-0.292;2023-04-25T12:54:20;2.45;;;0.50;;
76903;SDS011;65865;51.698;-0.292;2023-04-25T12:56:46;1.80;;;0.38;;
76903;SDS011;65865;51.698;-0.292;2023-04-25T12:59:12;1.40;;;0.35;;
76903;SDS011;65865;51.698;-0.292;2023-04-25T13:01:39;1.75;;;0.30;;
76903;SDS011;65865;51.698;-0.292;2023-04-25T13:04:05;1.65;;;0.50;;
76903;SDS011;65865;51.698;-0.292;2023-04-25T13:06:31;1.98;;;0.38;;
76903;SDS011;65865;51.698;-0.292;2023-04-25T13:08:57;1.08;;;0.30;;
76903;SDS011;65865;51.698;-0.292;2023-04-25T13:11:23;1.10;;;0.40;;
76903;SDS011;65865;51.698;-0.292;2023-04-25T13:13:49;1.70;;;0.40;;
76903;SDS011;65865;51.698;-0.292;2023-04-25T13:16:15;2.42;;;0.50;;
76903;SDS011;65865;51.698;-0.292;2023-04-25T13:18:41;1.55;;;0.40;;
76903;SDS011;65865;51.698;-0.292;2023-04-25T13:21:08;1.88;;;0.40;;
76903;SDS011;65865;51.698;-0.292;2023-04-25T13:23:35;2.60;;;0.40;;
76903;SDS011;65865;51.698;-0.292;2023-04-25T13:26:01;1.00;;;0.20;;
76903;SDS011;65865;51.698;-0.292;2023-04-25T13:28:27;0.80;;;0.20;;
76903;SDS011;65865;51.698;-0.292;2023-04-25T13:30:54;1.77;;;0.30;;
76903;SDS011;65865;51.698;-0.292;2023-04-25T13:33:20;1.02;;;0.38;;
76903;SDS011;65865;51.698;-0.292;2023-04-25T13:35:47;0.65;;;0.20;;
76903;SDS011;65865;51.698;-0.292;2023-04-25T13:38:22;0.93;;;0.38;;
76903;SDS011;65865;51.698;-0.292;2023-04-25T13:40:48;2.10;;;0.30;;
76903;SDS011;65865;51.698;-0.292;2023-04-25T13:43:17;0.75;;;0.20;;
76903;SDS011;65865;51.698;-0.292;2023-04-25T13:45:43;1.17;;;0.35;;
76903;SDS011;65865;51.698;-0.292;2023-04-25T13:48:09;1.83;;;0.30;;
76903;SDS011;65865;51.698;-0.292;2023-04-25T13:50:35;1.58;;;0.40;;
76903;SDS011;65865;51.698;-0.292;2023-04-25T13:53:01;1.00;;;0.20;;
76903;SDS011;65865;51.698;-0.292;2023-04-25T13:55:27;1.55;;;0.40;;
76903;SDS011;65865;51.698;-0.292;2023-04-25T13:57:53;1.55;;;0.30;;
76903;SDS011;65865;51.698;-0.292;2023-04-25T14:00:19;1.35;;;0.30;;
76903;SDS011;65865;51.698;-0.292;2023-04-25T14:02:45;1.25;;;0.30;;
76903;SDS011;65865;51.698;-0.292;2023-04-25T14:05:11;2.92;;;0.40;;
76903;SDS011;65865;51.698;-0.292;2023-04-25T14:07:38;1.77;;;0.32;;
76903;SDS011;65865;51.698;-0.292;2023-04-25T14:10:04;1.30;;;0.30;;
76903;SDS011;65865;51.698;-0.292;2023-04-25T14:12:32;1.02;;;0.20;;
76903;SDS011;65865;51.698;-0.292;2023-04-25T14:14:58;0.68;;;0.28;;
76903;SDS011;65865;51.698;-0.292;2023-04-25T14:17:24;1.05;;;0.30;;
76903;SDS011;65865;51.698;-0.292;2023-04-25T14:19:50;1.67;;;0.35;;
76903;SDS011;65865;51.698;-0.292;2023-04-25T14:22:16;1.63;;;0.40;;
76903;SDS011;65865;51.698;-0.292;2023-04-25T14:24:42;1.35;;;0.43;;
76903;SDS011;65865;51.698;-0.292;2023-04-25T14:27:08;1.25;;;0.35;;
76903;SDS011;65865;51.698;-0.292;2023-04-25T14:29:35;1.90;;;0.40;;
76903;SDS011;65865;51.698;-0.292;2023-04-25T14:32:01;1.30;;;0.40;;
76903;SDS011;65865;51.698;-0.292;2023-04-25T14:34:27;1.65;;;0.40;;
76903;SDS011;65865;51.698;-0.292;2023-04-25T14:36:53;0.57;;;0.28;;
76903;SDS011;65865;51.698;-0.292;2023-04-25T14:39:19;1.73;;;0.30;;
76903;SDS011;65865;51.698;-0.292;2023-04-25T14:41:45;1.08;;;0.30;;
76903;SDS011;65865;51.698;-0.292;2023-04-25T14:44:11;1.10;;;0.38;;
76903;SDS011;65865;51.698;-0.292;2023-04-25T14:46:37;1.88;;;0.50;;